Latest Weather Observations for Yunta

IDS60801

Issued at 2:31 pm CST Sunday 24 September 2017 (issued every 30 minutes, with the page automatically refreshed every 10 minutes)

About weather observations | Map of weather stations | Latest weather observations for SA | Other Formats
Station Details ID: 020062 Name: YUNTA AIRSTRIP Lat: -32.57 Lon: 139.56 Height: 300.0 m
Data from the previous 72 hours. | See also: Recent months at Yunta
Date/Time
CST
Temp
°C
App
Temp
°C
Dew
Point
°C
Rel
Hum
%
Delta-T
°C
Wind Press
QNH
hPa
Press
MSL
hPa
Rain since
9am
mm
Dir  Spd
km/h
Gust
km/h
Spd
kts
Gust
kts
24/02:30pm 22.3 14.3 -2.4 19 10.8 WNW 30 43 16 23 1005.2 1004.8 0.0
24/02:00pm 22.4 13.8 -2.3 19 10.9 W 33 52 18 28 1005.2 1004.8 0.0
24/01:30pm 21.9 12.8 -3.5 18 10.9 W 35 46 19 25 1005.6 1005.2 0.0
24/01:18pm 22.1 13.5 -4.1 17 11.0 W 32 50 17 27 1005.6 1005.2 0.0
24/01:00pm 21.5 12.3 -4.5 17 10.8 W 35 50 19 27 1005.9 1005.5 0.0
24/12:32pm 21.9 13.1 -4.2 17 11.0 W 33 54 18 29 1006.3 1006.0 0.0
24/12:30pm 22.1 12.9 -4.1 17 11.1 W 35 54 19 29 1006.2 1005.9 0.0
24/12:00pm 21.1 10.3 -4.9 17 10.7 WNW 43 52 23 28 1006.5 1006.2 0.0
24/11:30am 21.2 11.2 -4.8 17 10.8 W 39 56 21 30 1006.8 1006.5 0.0
24/11:00am 20.5 9.7 -3.2 20 10.0 W 44 59 24 32 1006.9 1006.6 0.0
24/10:30am 19.5 9.4 -2.2 23 9.3 WNW 41 61 22 33 1007.2 1006.9 0.0
24/10:22am 19.7 9.7 -2.0 23 9.3 W 41 61 22 33 1007.2 1006.9 0.0
24/10:00am 18.8 9.0 -2.7 23 9.0 W 39 50 21 27 1007.4 1007.1 0.0
24/09:35am 18.5 9.5 -2.4 24 8.8 WNW 35 56 19 30 1007.4 1007.1 0.0
24/09:30am 18.2 9.3 -2.1 25 8.6 WNW 35 46 19 25 1007.6 1007.3 0.0
24/09:00am 18.1 9.6 -1.7 26 8.5 WNW 33 48 18 26 1007.6 1007.3 0.0
24/08:30am 16.9 9.0 -1.2 29 7.7 WNW 30 43 16 23 1007.5 1007.2 0.0
24/08:00am 15.7 7.4 -1.4 31 7.2 WNW 32 41 17 22 1007.3 1007.0 0.0
24/07:30am 14.7 7.3 -0.6 35 6.5 WNW 28 37 15 20 1007.3 1007.0 0.0
24/07:00am 13.7 8.5 0.0 39 5.8 NW 17 28 9 15 1007.1 1006.8 0.0
24/06:30am 10.8 7.2 0.5 49 4.3 N 9 15 5 8 1006.9 1006.6 0.0
24/06:00am 11.4 7.4 0.8 48 4.5 NW 11 19 6 10 1006.4 1006.1 0.0
24/05:30am 11.0 7.9 0.4 48 4.4 W 6 9 3 5 1006.2 1005.9 0.0
24/05:00am 11.1 7.5 0.5 48 4.4 NW 9 15 5 8 1006.0 1005.6 0.0
24/04:30am 10.9 6.9 0.3 48 4.4 NW 11 13 6 7 1005.8 1005.4 0.0
24/04:00am 10.4 6.6 -0.7 46 4.5 WNW 9 9 5 5 1005.9 1005.5 0.0
24/03:30am 11.2 7.0 -0.9 43 4.9 W 11 13 6 7 1005.9 1005.5 0.0
24/03:00am 11.5 7.3 -0.9 42 5.1 W 11 13 6 7 1005.8 1005.4 0.0
24/02:30am 12.2 7.6 -1.3 39 5.5 W 13 15 7 8 1005.8 1005.4 0.0
24/02:00am 12.6 7.9 -1.7 37 5.8 W 13 19 7 10 1005.8 1005.4 0.0
24/01:30am 13.4 8.7 -1.7 35 6.2 W 13 24 7 13 1005.7 1005.3 0.0
24/01:00am 13.7 9.1 -1.1 36 6.1 W 13 19 7 10 1005.8 1005.4 0.0
24/12:30am 14.0 10.3 -0.1 38 6.0 WSW 9 13 5 7 1005.9 1005.5 0.0
24/12:00am 13.8 10.3 1.1 42 5.5 WSW 9 15 5 8 1006.0 1005.6 0.0
 
Date/Time
CST
Temp
°C
App
Temp
°C
Dew
Point
°C
Rel
Hum
%
Delta-T
°C
Wind Press
QNH
hPa
Press
MSL
hPa
Rain since
9am
mm
Dir  Spd
km/h
Gust
km/h
Spd
kts
Gust
kts
23/11:30pm 14.6 10.4 1.5 41 5.8 WSW 13 19 7 10 1006.1 1005.7 0.0
23/11:00pm 13.0 9.7 2.6 49 4.6 WSW 9 13 5 7 1006.6 1006.3 0.0
23/10:30pm 13.5 10.2 2.7 48 4.9 SW 9 13 5 7 1006.7 1006.4 0.0
23/10:00pm 14.7 11.3 1.6 41 5.8 SSW 9 13 5 7 1006.7 1006.4 0.0
23/09:30pm 14.7 10.8 -1.8 32 6.8 SW 9 11 5 6 1006.7 1006.4 0.0
23/09:00pm 15.5 11.6 -4.4 25 7.8 SSW 7 9 4 5 1006.3 1006.0 0.0
23/08:30pm 17.6 13.0 -4.3 22 8.8 W 11 15 6 8 1005.7 1005.3 0.0
23/08:00pm 19.4 14.0 -4.1 20 9.7 W 15 20 8 11 1005.1 1004.7 0.0
23/07:30pm 20.3 13.9 -4.8 18 10.3 W 20 28 11 15 1004.3 1004.0 0.0
23/07:00pm 21.2 14.0 -5.6 16 10.9 W 24 32 13 17 1003.7 1003.4 0.0
23/06:30pm 22.1 15.0 -4.1 17 11.1 W 24 33 13 18 1003.0 1002.6 0.0
23/06:00pm 23.4 14.2 -4.7 15 11.9 W 35 48 19 26 1002.4 1002.0 0.0
23/05:30pm 24.8 14.2 -3.6 15 12.5 W 43 59 23 32 1001.6 1001.2 0.0
23/05:02pm 25.6 14.9 -2.9 15 12.7 W 44 65 24 35 1001.1 1000.8 0.0
23/05:00pm 25.8 14.7 -2.8 15 12.8 W 46 65 25 35 1001.0 1000.7 0.0
23/04:40pm 26.7 15.7 -2.1 15 13.1 WNW 46 65 25 35 1000.8 1000.5 0.0
23/04:30pm 27.0 14.8 -2.7 14 13.5 WNW 52 65 28 35 1000.4 1000.0 0.0
23/04:00pm 28.0 17.3 -3.0 13 14.0 WNW 44 72 24 39 1000.1 999.7 0.0
23/03:30pm 28.7 16.9 -2.4 13 14.4 WNW 50 69 27 37 999.9 999.5 0.0
23/03:00pm 28.6 16.9 -1.5 14 14.1 WNW 50 72 27 39 1000.0 999.6 0.0
23/02:30pm 29.6 18.1 0.2 15 14.3 WNW 50 69 27 37 999.9 999.5 0.0
23/02:25pm 29.2 17.8 0.8 16 13.9 WNW 50 69 27 37 1000.0 999.6 0.0
23/02:00pm 29.3 18.7 3.3 19 13.3 WNW 48 65 26 35 1000.2 999.8 0.0
23/01:30pm 29.0 18.9 3.8 20 13.0 W 46 65 25 35 1000.3 999.9 0.0
23/01:00pm 29.6 19.3 2.8 18 13.6 W 46 65 25 35 1000.3 999.9 0.0
23/12:46pm 29.6 19.8 3.6 19 13.4 W 44 65 24 35 1000.4 1000.0 0.0
23/12:30pm 29.6 20.0 3.6 19 13.4 W 43 57 23 31 1000.5 1000.2 0.0
23/12:05pm 29.7 20.0 2.9 18 13.6 W 43 63 23 34 1000.2 999.8 0.0
23/12:00pm 29.2 19.3 2.5 18 13.5 W 44 63 24 34 1000.3 999.9 0.0
23/11:40am 29.1 19.3 2.4 18 13.4 W 43 61 23 33 1000.3 999.9 0.0
23/11:30am 29.6 19.9 2.8 18 13.7 W 43 59 23 32 1000.2 999.8 0.0
23/11:00am 29.4 19.7 2.6 18 13.5 W 43 57 23 31 1000.4 1000.0 0.0
23/10:30am 29.0 19.3 0.7 16 13.9 W 41 52 22 28 1000.4 1000.0 0.0
23/10:17am 28.8 17.6 -0.4 15 13.9 W 48 69 26 37 1000.2 999.8 0.0
23/10:00am 29.6 18.9 -2.8 12 14.9 W 44 57 24 31 1000.1 999.7 0.0
23/09:30am 30.7 20.0 -4.4 10 15.9 WNW 43 57 23 31 999.6 999.2 0.0
23/09:20am 30.6 21.4 -4.4 10 15.8 NW 35 54 19 29 999.6 999.2 0.0
23/09:00am 30.3 20.1 -3.4 11 15.5 NW 41 54 22 29 999.5 999.1 0.0
23/08:45am 30.3 21.6 -3.4 11 15.4 NW 33 46 18 25 999.4 999.0 0.0
23/08:30am 29.1 21.4 -3.2 12 14.8 NNW 28 35 15 19 999.4 999.0 0.0
23/08:00am 25.4 17.2 -4.0 14 12.8 NNW 30 35 16 19 999.4 999.0 0.0
23/07:30am 23.4 15.6 -3.8 16 11.8 NNW 28 37 15 20 999.2 998.8 0.0
23/07:00am 22.1 14.6 -4.1 17 11.0 NNW 26 30 14 16 999.1 998.7 0.0
23/06:30am 21.3 13.9 -4.0 18 10.7 NNW 26 30 14 16 999.0 998.6 0.0
23/06:00am 21.3 14.2 -4.0 18 10.7 NNW 24 30 13 16 998.9 998.5 0.0
23/05:30am 21.3 14.2 -4.0 18 10.7 NNW 24 28 13 15 999.0 998.6 0.0
23/05:00am 20.9 14.2 -4.3 18 10.5 N 22 24 12 13 999.0 998.6 0.0
23/04:30am 21.1 14.8 -4.1 18 10.6 NNW 20 24 11 13 999.1 998.7 0.0
23/04:00am 20.6 14.3 -3.8 19 10.2 NNW 20 22 11 12 999.3 998.9 0.0
23/03:30am 20.1 14.0 -4.2 19 10.1 NNW 19 20 10 11 999.8 999.4 0.0
23/03:00am 20.3 14.2 -4.0 19 10.2 NNW 19 22 10 12 1000.2 999.8 0.0
23/02:30am 20.9 14.8 -4.3 18 10.5 NNW 19 20 10 11 1000.5 1000.2 0.0
23/02:00am 20.7 14.5 -4.4 18 10.4 NNW 19 20 10 11 1001.3 1001.0 0.0
23/01:30am 21.8 15.5 -4.3 17 11.0 N 20 24 11 13 1002.0 1001.6 0.0
23/01:00am 22.2 15.9 -4.0 17 11.1 N 20 24 11 13 1002.5 1002.1 0.0
23/12:30am 21.2 15.2 -3.3 19 10.5 NNW 19 20 10 11 1002.8 1002.4 0.0
23/12:00am 21.7 16.0 -3.6 18 10.8 N 17 19 9 10 1003.0 1002.6 0.0
 
Date/Time
CST
Temp
°C
App
Temp
°C
Dew
Point
°C
Rel
Hum
%
Delta-T
°C
Wind Press
QNH
hPa
Press
MSL
hPa
Rain since
9am
mm
Dir  Spd
km/h
Gust
km/h
Spd
kts
Gust
kts
22/11:30pm 21.1 16.2 -3.4 19 10.4 NNW 13 13 7 7 1003.2 1002.8 0.0
22/11:00pm 22.5 17.3 -3.0 18 11.0 N 15 17 8 9 1003.5 1003.2 0.0
22/10:30pm 21.8 16.5 -3.5 18 10.8 N 15 15 8 8 1003.6 1003.3 0.0
22/10:00pm 21.8 16.6 -2.8 19 10.6 N 15 17 8 9 1003.8 1003.5 0.0
22/09:30pm 22.3 17.4 -3.1 18 11.0 N 13 15 7 8 1004.0 1003.7 0.0
22/09:00pm 22.3 18.6 -3.1 18 11.0 N 7 9 4 5 1004.1 1003.8 0.0
22/08:30pm 23.3 18.7 -3.9 16 11.7 N 11 13 6 7 1004.3 1004.0 0.0
22/08:00pm 24.7 19.8 -3.6 15 12.3 N 13 15 7 8 1004.5 1004.2 0.0
22/07:30pm 26.3 21.3 -4.3 13 13.4 NNW 13 17 7 9 1004.5 1004.2 0.0
22/07:00pm 28.8 23.1 -3.4 12 14.6 NW 17 24 9 13 1004.5 1004.2 0.0
22/06:30pm 29.1 23.8 -3.2 12 14.8 NW 15 20 8 11 1004.3 1004.0 0.0
22/06:00pm 29.7 24.4 -3.9 11 15.2 NW 15 20 8 11 1004.2 1003.9 0.0
22/05:30pm 30.9 24.0 -3.0 11 15.8 NW 24 32 13 17 1004.2 1003.9 0.0
22/05:00pm 31.9 24.5 -3.5 10 16.4 WNW 26 39 14 21 1004.0 1003.7 0.0
22/04:30pm 32.5 23.7 -4.4 9 17.0 WNW 33 46 18 25 1003.8 1003.5 0.0
22/04:00pm 32.9 23.4 -4.1 9 17.1 NW 37 63 20 34 1003.6 1003.3 0.0
22/03:52pm 33.2 24.1 -3.9 9 17.2 NW 35 63 19 34 1003.5 1003.2 0.0
22/03:30pm 33.2 25.9 -2.5 10 17.0 NW 26 37 14 20 1003.6 1003.3 0.0
22/03:02pm 32.8 24.7 -2.8 10 16.8 NNW 30 50 16 27 1003.8 1003.5 0.0
22/03:00pm 33.1 24.7 -2.6 10 17.0 NNW 32 50 17 27 1003.8 1003.5 0.0
22/02:53pm 32.9 25.2 -2.7 10 16.8 NNW 28 50 15 27 1003.7 1003.4 0.0
22/02:30pm 33.1 27.2 -2.6 10 17.0 NW 19 30 10 16 1004.1 1003.8 0.0
22/02:00pm 32.4 24.7 -3.1 10 16.6 NW 28 39 15 21 1004.4 1004.1 0.0
22/01:30pm 32.2 25.4 -2.0 11 16.3 NNW 24 32 13 17 1004.7 1004.4 0.0
22/01:00pm 31.8 25.6 -3.5 10 16.3 NNW 20 35 11 19 1005.1 1004.7 0.0
22/12:30pm 31.2 23.9 -2.7 11 15.9 NW 26 41 14 22 1006.0 1005.6 0.0
22/12:00pm 30.5 24.6 -2.1 12 15.3 NW 19 30 10 16 1006.3 1006.0 0.0
22/11:30am 29.1 24.2 -3.2 12 14.7 N 13 24 7 13 1006.6 1006.3 0.0
22/11:00am 28.3 22.0 -3.8 12 14.4 N 20 30 11 16 1007.0 1006.7 0.0
22/10:30am 26.5 22.4 -3.1 14 13.2 NNW 9 17 5 9 1007.9 1007.6 0.0
22/10:00am 24.9 19.7 -2.6 16 12.2 N 15 20 8 11 1008.5 1008.1 0.0
22/09:30am 22.5 19.8 2.6 27 9.6 N 6 13 3 7 1009.0 1008.6 0.0
22/09:00am 18.3 17.6 6.8 47 5.8 CALM 0 4 0 2 1009.4 1009.1 0.0
22/08:30am 16.3 15.7 7.3 55 4.6 CALM 0 2 0 1 1009.5 1009.2 0.0
22/08:00am 14.1 13.1 7.4 64 3.3 SSW 2 4 1 2 1009.6 1009.3 0.0
22/07:30am 12.4 10.6 7.3 71 2.5 SW 6 7 3 4 1009.6 1009.3 0.0
22/07:00am 10.0 8.7 6.0 76 1.9 SW 2 6 1 3 1009.5 1009.2 0.0
22/06:30am 6.4 4.0 2.3 75 1.7 SW 4 6 2 3 1009.3 1009.0 0.0
22/06:00am 6.7 3.9 3.0 77 1.6 WSW 7 9 4 5 1009.3 1009.0 0.0
22/05:30am 7.3 4.8 3.7 78 1.6 WSW 6 7 3 4 1009.1 1008.8 0.0
22/05:00am 8.6 6.4 5.2 79 1.5 WSW 6 7 3 4 1009.1 1008.8 0.0
22/04:30am 8.7 6.2 4.9 77 1.7 SW 7 9 4 5 1009.0 1008.6 0.0
22/04:00am 8.9 6.4 4.7 75 1.9 WSW 7 9 4 5 1009.1 1008.8 0.0
22/03:30am 8.9 6.0 4.5 74 2.0 SW 9 11 5 6 1009.4 1009.1 0.0
22/03:00am 9.0 6.1 2.8 65 2.7 SW 7 9 4 5 1009.8 1009.5 0.0
22/02:30am 10.4 7.7 3.9 64 2.9 SW 7 9 4 5 1010.0 1009.7 0.0
22/02:00am 10.0 6.6 1.9 57 3.5 SW 9 11 5 6 1010.4 1010.1 0.0
22/01:30am 10.6 7.2 -0.5 46 4.5 SW 7 7 4 4 1010.6 1010.3 0.0
22/01:00am 11.4 7.7 -4.3 33 5.9 SW 6 7 3 4 1010.8 1010.5 0.0
22/12:30am 12.4 8.1 -4.7 30 6.5 SW 9 11 5 6 1011.0 1010.7 0.0
22/12:00am 13.0 9.0 -6.0 26 7.0 SW 7 9 4 5 1011.0 1010.7 0.0
 
Date/Time
CST
Temp
°C
App
Temp
°C
Dew
Point
°C
Rel
Hum
%
Delta-T
°C
Wind Press
QNH
hPa
Press
MSL
hPa
Rain since
9am
mm
Dir  Spd
km/h
Gust
km/h
Spd
kts
Gust
kts
21/11:30pm 14.9 11.5 -5.5 24 7.8 SSW 4 6 2 3 1010.8 1010.5 0.0
21/11:00pm 17.1 13.2 -4.2 23 8.5 SSE 7 9 4 5 1010.8 1010.5 0.0
21/10:30pm 18.7 14.9 -4.0 21 9.3 S 7 11 4 6 1010.7 1010.4 0.0
21/10:00pm 18.0 14.5 -5.9 19 9.3 SSW 4 7 2 4 1010.7 1010.4 0.0
21/09:30pm 20.4 14.9 -5.4 17 10.4 SSE 15 22 8 12 1010.5 1010.2 0.0
21/09:00pm 16.6 13.7 -8.5 17 9.2 CALM 0 0 0 0 1010.1 1009.8 0.0
21/08:30pm 17.8 13.7 -8.3 16 9.7 N 6 6 3 3 1009.8 1009.5 0.0
21/08:00pm 19.8 15.2 -8.4 14 10.7 NNE 9 9 5 5 1009.7 1009.4 0.0
21/07:30pm 21.7 18.1 -7.9 13 11.6 NW 4 9 2 5 1009.5 1009.2 0.0
21/07:00pm 24.2 18.4 -8.1 11 12.9 WNW 15 17 8 9 1009.2 1008.9 0.0
21/06:30pm 25.8 20.5 -6.9 11 13.6 NW 13 20 7 11 1008.6 1008.2 0.0
21/06:00pm 26.3 21.5 -6.5 11 13.8 NNW 11 17 6 9 1008.1 1007.8 0.0
21/05:30pm 27.5 21.1 -6.8 10 14.5 N 19 26 10 14 1007.8 1007.5 0.0
21/05:00pm 28.2 21.9 -6.3 10 14.7 N 19 28 10 15 1007.8 1007.5 0.0
21/04:30pm 28.8 22.5 -5.8 10 15.0 NW 19 24 10 13 1007.6 1007.3 0.0
21/04:00pm 29.8 23.8 -6.4 9 15.7 NW 17 30 9 16 1007.6 1007.3 0.0
21/03:30pm 30.0 23.5 -6.3 9 15.8 NNW 20 32 11 17 1007.7 1007.4 0.0
21/03:00pm 30.3 23.4 -6.1 9 15.9 NNW 22 32 12 17 1007.9 1007.6 0.0

Other Formats:

Comma delimited format used in spreadsheet applications
http://www.bom.gov.au/fwo/IDS60801/IDS60801.94684.axf

JavaScript Object Notation format (JSON) in row-major order
http://www.bom.gov.au/fwo/IDS60801/IDS60801.94684.json